sensor_id;sensor_type;location;lat;lon;timestamp;temperature;humidity
3053;DHT22;1536;51.098;6.414;2024-02-14T00:02:23;10.60;99.90
3053;DHT22;1536;51.098;6.414;2024-02-14T00:04:54;10.60;99.90
3053;DHT22;1536;51.098;6.414;2024-02-14T00:07:23;10.60;99.90
3053;DHT22;1536;51.098;6.414;2024-02-14T00:09:52;10.60;99.90
3053;DHT22;1536;51.098;6.414;2024-02-14T00:12:19;10.60;99.90
3053;DHT22;1536;51.098;6.414;2024-02-14T00:14:46;10.60;99.90
3053;DHT22;1536;51.098;6.414;2024-02-14T00:17:14;10.60;99.90
3053;DHT22;1536;51.098;6.414;2024-02-14T00:19:41;10.60;99.90
3053;DHT22;1536;51.098;6.414;2024-02-14T00:22:08;10.60;99.90
3053;DHT22;1536;51.098;6.414;2024-02-14T00:24:37;10.60;99.90
3053;DHT22;1536;51.098;6.414;2024-02-14T00:27:04;10.60;99.90
3053;DHT22;1536;51.098;6.414;2024-02-14T00:29:32;10.60;99.90
3053;DHT22;1536;51.098;6.414;2024-02-14T00:31:59;10.60;99.90
3053;DHT22;1536;51.098;6.414;2024-02-14T00:34:26;10.60;99.90
3053;DHT22;1536;51.098;6.414;2024-02-14T00:36:53;10.60;99.90
3053;DHT22;1536;51.098;6.414;2024-02-14T00:39:20;10.60;99.90
3053;DHT22;1536;51.098;6.414;2024-02-14T00:41:48;10.60;99.90
3053;DHT22;1536;51.098;6.414;2024-02-14T00:44:18;10.60;99.90
3053;DHT22;1536;51.098;6.414;2024-02-14T00:46:45;10.60;99.90
3053;DHT22;1536;51.098;6.414;2024-02-14T00:49:12;10.60;99.90
3053;DHT22;1536;51.098;6.414;2024-02-14T00:51:39;10.60;99.90
3053;DHT22;1536;51.098;6.414;2024-02-14T00:54:06;10.60;99.90
3053;DHT22;1536;51.098;6.414;2024-02-14T00:56:33;10.60;99.90
3053;DHT22;1536;51.098;6.414;2024-02-14T00:59:01;10.60;99.90
3053;DHT22;1536;51.098;6.414;2024-02-14T01:01:28;10.60;99.90
3053;DHT22;1536;51.098;6.414;2024-02-14T01:03:55;10.60;99.90
3053;DHT22;1536;51.098;6.414;2024-02-14T01:06:22;10.60;99.90
3053;DHT22;1536;51.098;6.414;2024-02-14T01:08:50;10.60;99.90
3053;DHT22;1536;51.098;6.414;2024-02-14T01:11:17;10.70;99.90
3053;DHT22;1536;51.098;6.414;2024-02-14T01:13:44;10.60;99.90
3053;DHT22;1536;51.098;6.414;2024-02-14T01:16:12;10.60;99.90
3053;DHT22;1536;51.098;6.414;2024-02-14T01:18:39;10.60;99.90
3053;DHT22;1536;51.098;6.414;2024-02-14T01:21:06;10.60;99.90
3053;DHT22;1536;51.098;6.414;2024-02-14T01:23:33;10.60;99.90
3053;DHT22;1536;51.098;6.414;2024-02-14T01:26:01;10.70;99.90
3053;DHT22;1536;51.098;6.414;2024-02-14T01:28:28;10.70;99.90
3053;DHT22;1536;51.098;6.414;2024-02-14T01:30:55;10.70;99.90
3053;DHT22;1536;51.098;6.414;2024-02-14T01:33:24;10.70;99.90
3053;DHT22;1536;51.098;6.414;2024-02-14T01:35:51;10.70;99.90
3053;DHT22;1536;51.098;6.414;2024-02-14T01:38:17;10.70;99.90
3053;DHT22;1536;51.098;6.414;2024-02-14T01:40:45;10.70;99.90
3053;DHT22;1536;51.098;6.414;2024-02-14T01:43:12;10.70;99.90
3053;DHT22;1536;51.098;6.414;2024-02-14T01:45:40;10.70;99.90
3053;DHT22;1536;51.098;6.414;2024-02-14T01:48:08;10.70;99.90
3053;DHT22;1536;51.098;6.414;2024-02-14T01:50:37;10.70;99.90
3053;DHT22;1536;51.098;6.414;2024-02-14T01:53:06;10.70;99.90
3053;DHT22;1536;51.098;6.414;2024-02-14T01:55:33;10.80;99.90
3053;DHT22;1536;51.098;6.414;2024-02-14T01:58:01;10.80;99.90
3053;DHT22;1536;51.098;6.414;2024-02-14T02:00:30;10.80;99.90
3053;DHT22;1536;51.098;6.414;2024-02-14T02:02:58;10.80;99.90
3053;DHT22;1536;51.098;6.414;2024-02-14T02:05:25;10.80;99.90
3053;DHT22;1536;51.098;6.414;2024-02-14T02:07:53;10.80;99.90
3053;DHT22;1536;51.098;6.414;2024-02-14T02:10:20;10.80;99.90
3053;DHT22;1536;51.098;6.414;2024-02-14T02:12:48;10.80;99.90
3053;DHT22;1536;51.098;6.414;2024-02-14T02:15:16;10.80;99.90
3053;DHT22;1536;51.098;6.414;2024-02-14T02:17:43;10.80;99.90
3053;DHT22;1536;51.098;6.414;2024-02-14T02:20:11;10.80;99.90
3053;DHT22;1536;51.098;6.414;2024-02-14T02:22:45;10.80;99.90
3053;DHT22;1536;51.098;6.414;2024-02-14T02:25:13;10.90;99.90
3053;DHT22;1536;51.098;6.414;2024-02-14T02:27:40;10.90;99.90
3053;DHT22;1536;51.098;6.414;2024-02-14T02:30:08;10.90;99.90
3053;DHT22;1536;51.098;6.414;2024-02-14T02:32:36;10.90;99.90
3053;DHT22;1536;51.098;6.414;2024-02-14T02:35:03;10.90;99.90
3053;DHT22;1536;51.098;6.414;2024-02-14T02:37:31;11.00;99.90
3053;DHT22;1536;51.098;6.414;2024-02-14T02:39:59;11.00;99.90
3053;DHT22;1536;51.098;6.414;2024-02-14T02:42:26;11.00;99.90
3053;DHT22;1536;51.098;6.414;2024-02-14T02:44:54;11.00;99.90
3053;DHT22;1536;51.098;6.414;2024-02-14T02:47:21;11.00;99.90
3053;DHT22;1536;51.098;6.414;2024-02-14T02:49:48;11.00;99.90
3053;DHT22;1536;51.098;6.414;2024-02-14T02:52:15;11.00;99.90
3053;DHT22;1536;51.098;6.414;2024-02-14T02:54:42;11.00;99.90
3053;DHT22;1536;51.098;6.414;2024-02-14T02:57:10;11.00;99.90
3053;DHT22;1536;51.098;6.414;2024-02-14T02:59:37;11.00;99.90
3053;DHT22;1536;51.098;6.414;2024-02-14T03:02:08;11.00;99.90
3053;DHT22;1536;51.098;6.414;2024-02-14T03:04:37;11.00;99.90
3053;DHT22;1536;51.098;6.414;2024-02-14T03:07:04;10.90;99.90
3053;DHT22;1536;51.098;6.414;2024-02-14T03:09:32;10.90;99.90
3053;DHT22;1536;51.098;6.414;2024-02-14T03:11:59;10.90;99.90
3053;DHT22;1536;51.098;6.414;2024-02-14T03:14:29;10.90;99.90
3053;DHT22;1536;51.098;6.414;2024-02-14T03:16:58;10.90;99.90
3053;DHT22;1536;51.098;6.414;2024-02-14T03:19:25;10.90;99.90
3053;DHT22;1536;51.098;6.414;2024-02-14T03:21:52;10.90;99.90
3053;DHT22;1536;51.098;6.414;2024-02-14T03:24:19;10.90;99.90
3053;DHT22;1536;51.098;6.414;2024-02-14T03:26:46;10.90;99.90
3053;DHT22;1536;51.098;6.414;2024-02-14T03:29:16;10.90;99.90
3053;DHT22;1536;51.098;6.414;2024-02-14T03:53:31;10.50;99.90
3053;DHT22;1536;51.098;6.414;2024-02-14T03:55:58;10.90;99.90
3053;DHT22;1536;51.098;6.414;2024-02-14T03:58:26;10.90;99.90
3053;DHT22;1536;51.098;6.414;2024-02-14T04:00:53;10.90;99.90
3053;DHT22;1536;51.098;6.414;2024-02-14T04:03:19;10.90;99.90
3053;DHT22;1536;51.098;6.414;2024-02-14T04:05:48;10.90;99.90
3053;DHT22;1536;51.098;6.414;2024-02-14T04:08:14;10.90;99.90
3053;DHT22;1536;51.098;6.414;2024-02-14T04:10:43;10.90;99.90
3053;DHT22;1536;51.098;6.414;2024-02-14T04:13:09;10.90;99.90
3053;DHT22;1536;51.098;6.414;2024-02-14T04:15:36;10.90;99.90
3053;DHT22;1536;51.098;6.414;2024-02-14T04:18:03;10.90;99.90
3053;DHT22;1536;51.098;6.414;2024-02-14T04:20:31;10.90;99.90
3053;DHT22;1536;51.098;6.414;2024-02-14T04:22:58;10.90;99.90
3053;DHT22;1536;51.098;6.414;2024-02-14T04:25:25;10.90;99.90
3053;DHT22;1536;51.098;6.414;2024-02-14T04:27:53;10.90;99.90
3053;DHT22;1536;51.098;6.414;2024-02-14T04:30:20;10.90;99.90
3053;DHT22;1536;51.098;6.414;2024-02-14T04:32:47;10.90;99.90
3053;DHT22;1536;51.098;6.414;2024-02-14T04:35:14;10.90;99.90
3053;DHT22;1536;51.098;6.414;2024-02-14T04:37:41;10.90;99.90
3053;DHT22;1536;51.098;6.414;2024-02-14T04:40:12;10.90;99.90
3053;DHT22;1536;51.098;6.414;2024-02-14T04:42:39;10.90;99.90
3053;DHT22;1536;51.098;6.414;2024-02-14T04:45:08;10.90;99.90
3053;DHT22;1536;51.098;6.414;2024-02-14T04:47:35;10.90;99.90
3053;DHT22;1536;51.098;6.414;2024-02-14T04:50:02;10.90;99.90
3053;DHT22;1536;51.098;6.414;2024-02-14T04:52:29;10.90;99.90
3053;DHT22;1536;51.098;6.414;2024-02-14T04:54:56;10.90;99.90
3053;DHT22;1536;51.098;6.414;2024-02-14T04:57:23;10.90;99.90
3053;DHT22;1536;51.098;6.414;2024-02-14T04:59:50;10.90;99.90
3053;DHT22;1536;51.098;6.414;2024-02-14T05:02:18;10.90;99.90
3053;DHT22;1536;51.098;6.414;2024-02-14T05:04:45;10.90;99.90
3053;DHT22;1536;51.098;6.414;2024-02-14T05:07:12;10.90;99.90
3053;DHT22;1536;51.098;6.414;2024-02-14T05:09:39;10.90;99.90
3053;DHT22;1536;51.098;6.414;2024-02-14T05:12:06;10.90;99.90
3053;DHT22;1536;51.098;6.414;2024-02-14T05:14:38;10.90;99.90
3053;DHT22;1536;51.098;6.414;2024-02-14T05:17:06;10.90;99.90
3053;DHT22;1536;51.098;6.414;2024-02-14T05:19:34;10.90;99.90
3053;DHT22;1536;51.098;6.414;2024-02-14T05:22:01;10.90;99.90
3053;DHT22;1536;51.098;6.414;2024-02-14T05:24:28;10.90;99.90
3053;DHT22;1536;51.098;6.414;2024-02-14T05:26:56;10.90;99.90
3053;DHT22;1536;51.098;6.414;2024-02-14T05:29:23;10.90;99.90
3053;DHT22;1536;51.098;6.414;2024-02-14T05:31:50;10.90;99.90
3053;DHT22;1536;51.098;6.414;2024-02-14T05:34:18;10.90;99.90
3053;DHT22;1536;51.098;6.414;2024-02-14T05:36:46;10.80;99.90
3053;DHT22;1536;51.098;6.414;2024-02-14T05:39:13;10.80;99.90
3053;DHT22;1536;51.098;6.414;2024-02-14T05:41:41;10.80;99.90
3053;DHT22;1536;51.098;6.414;2024-02-14T05:44:08;10.80;99.90
3053;DHT22;1536;51.098;6.414;2024-02-14T05:46:35;10.80;99.90
3053;DHT22;1536;51.098;6.414;2024-02-14T05:49:02;10.80;99.90
3053;DHT22;1536;51.098;6.414;2024-02-14T05:51:29;10.80;99.90
3053;DHT22;1536;51.098;6.414;2024-02-14T05:53:57;10.80;99.90
3053;DHT22;1536;51.098;6.414;2024-02-14T05:56:24;10.80;99.90
3053;DHT22;1536;51.098;6.414;2024-02-14T05:58:50;10.80;99.90
3053;DHT22;1536;51.098;6.414;2024-02-14T06:01:18;10.80;99.90
3053;DHT22;1536;51.098;6.414;2024-02-14T06:03:45;10.80;99.90
3053;DHT22;1536;51.098;6.414;2024-02-14T06:06:11;10.90;99.90
3053;DHT22;1536;51.098;6.414;2024-02-14T06:08:38;10.90;99.90
3053;DHT22;1536;51.098;6.414;2024-02-14T06:11:07;10.90;99.90
3053;DHT22;1536;51.098;6.414;2024-02-14T06:13:33;10.80;99.90
3053;DHT22;1536;51.098;6.414;2024-02-14T06:16:01;10.80;99.90
3053;DHT22;1536;51.098;6.414;2024-02-14T06:18:28;10.90;99.90
3053;DHT22;1536;51.098;6.414;2024-02-14T06:20:54;10.90;99.90
3053;DHT22;1536;51.098;6.414;2024-02-14T06:23:21;10.90;99.90
3053;DHT22;1536;51.098;6.414;2024-02-14T06:25:48;10.90;99.90
3053;DHT22;1536;51.098;6.414;2024-02-14T06:28:16;10.90;99.90
3053;DHT22;1536;51.098;6.414;2024-02-14T06:30:43;10.90;99.90
3053;DHT22;1536;51.098;6.414;2024-02-14T06:33:10;10.90;99.90
3053;DHT22;1536;51.098;6.414;2024-02-14T06:35:37;10.90;99.90
3053;DHT22;1536;51.098;6.414;2024-02-14T06:38:04;10.90;99.90
3053;DHT22;1536;51.098;6.414;2024-02-14T06:40:32;10.90;99.90
3053;DHT22;1536;51.098;6.414;2024-02-14T06:42:59;10.90;99.90
3053;DHT22;1536;51.098;6.414;2024-02-14T06:45:27;10.90;99.90
3053;DHT22;1536;51.098;6.414;2024-02-14T06:47:54;10.90;99.90
3053;DHT22;1536;51.098;6.414;2024-02-14T06:50:22;11.00;99.90
3053;DHT22;1536;51.098;6.414;2024-02-14T06:52:50;11.00;99.90
3053;DHT22;1536;51.098;6.414;2024-02-14T06:55:18;11.00;99.90
3053;DHT22;1536;51.098;6.414;2024-02-14T06:57:44;11.00;99.90
3053;DHT22;1536;51.098;6.414;2024-02-14T07:00:12;11.00;99.90
3053;DHT22;1536;51.098;6.414;2024-02-14T07:02:41;11.00;99.90
3053;DHT22;1536;51.098;6.414;2024-02-14T07:05:08;11.00;99.90
3053;DHT22;1536;51.098;6.414;2024-02-14T07:07:38;11.00;99.90
3053;DHT22;1536;51.098;6.414;2024-02-14T07:10:06;11.00;99.90
3053;DHT22;1536;51.098;6.414;2024-02-14T07:12:33;11.10;99.90
3053;DHT22;1536;51.098;6.414;2024-02-14T07:15:05;11.10;99.90
3053;DHT22;1536;51.098;6.414;2024-02-14T07:17:33;11.10;99.90
3053;DHT22;1536;51.098;6.414;2024-02-14T07:20:02;11.10;99.90
3053;DHT22;1536;51.098;6.414;2024-02-14T07:22:29;11.10;99.90
3053;DHT22;1536;51.098;6.414;2024-02-14T07:24:57;11.10;99.90
3053;DHT22;1536;51.098;6.414;2024-02-14T07:27:24;11.10;99.90
3053;DHT22;1536;51.098;6.414;2024-02-14T07:29:50;11.10;99.90
3053;DHT22;1536;51.098;6.414;2024-02-14T07:32:17;11.10;99.90
3053;DHT22;1536;51.098;6.414;2024-02-14T07:34:44;11.20;99.90
3053;DHT22;1536;51.098;6.414;2024-02-14T07:37:13;11.20;99.90
3053;DHT22;1536;51.098;6.414;2024-02-14T07:39:43;11.20;99.90
3053;DHT22;1536;51.098;6.414;2024-02-14T07:42:12;11.20;99.90
3053;DHT22;1536;51.098;6.414;2024-02-14T07:44:39;11.20;99.90
3053;DHT22;1536;51.098;6.414;2024-02-14T07:47:06;11.20;99.90
3053;DHT22;1536;51.098;6.414;2024-02-14T07:49:32;11.20;99.90
3053;DHT22;1536;51.098;6.414;2024-02-14T07:51:59;11.20;99.90
3053;DHT22;1536;51.098;6.414;2024-02-14T07:54:27;11.30;99.90
3053;DHT22;1536;51.098;6.414;2024-02-14T07:56:54;11.30;99.90
3053;DHT22;1536;51.098;6.414;2024-02-14T07:59:21;11.30;99.90
3053;DHT22;1536;51.098;6.414;2024-02-14T08:01:49;11.30;99.90
3053;DHT22;1536;51.098;6.414;2024-02-14T08:04:20;11.30;99.90
3053;DHT22;1536;51.098;6.414;2024-02-14T08:06:46;11.40;99.90
3053;DHT22;1536;51.098;6.414;2024-02-14T08:09:14;11.40;99.90
3053;DHT22;1536;51.098;6.414;2024-02-14T08:11:43;11.40;99.90
3053;DHT22;1536;51.098;6.414;2024-02-14T08:14:09;11.50;99.90
3053;DHT22;1536;51.098;6.414;2024-02-14T08:16:38;11.50;99.90
3053;DHT22;1536;51.098;6.414;2024-02-14T08:19:05;11.50;99.90
3053;DHT22;1536;51.098;6.414;2024-02-14T08:21:32;11.60;99.90
3053;DHT22;1536;51.098;6.414;2024-02-14T08:23:58;11.60;99.90
3053;DHT22;1536;51.098;6.414;2024-02-14T08:26:25;11.60;99.90
3053;DHT22;1536;51.098;6.414;2024-02-14T08:28:54;11.60;99.90
3053;DHT22;1536;51.098;6.414;2024-02-14T08:31:20;11.70;99.90
3053;DHT22;1536;51.098;6.414;2024-02-14T08:33:48;11.70;99.90
3053;DHT22;1536;51.098;6.414;2024-02-14T08:36:14;11.70;99.90
3053;DHT22;1536;51.098;6.414;2024-02-14T08:38:44;11.70;99.90
3053;DHT22;1536;51.098;6.414;2024-02-14T08:41:13;11.80;99.90
3053;DHT22;1536;51.098;6.414;2024-02-14T08:43:40;11.80;99.90
3053;DHT22;1536;51.098;6.414;2024-02-14T08:46:11;11.80;99.90
3053;DHT22;1536;51.098;6.414;2024-02-14T08:48:38;11.90;99.90
3053;DHT22;1536;51.098;6.414;2024-02-14T08:51:07;11.90;99.90
3053;DHT22;1536;51.098;6.414;2024-02-14T08:53:34;11.90;99.90
3053;DHT22;1536;51.098;6.414;2024-02-14T08:56:02;12.00;99.90
3053;DHT22;1536;51.098;6.414;2024-02-14T08:58:28;12.00;99.90
3053;DHT22;1536;51.098;6.414;2024-02-14T09:00:55;12.00;99.90
3053;DHT22;1536;51.098;6.414;2024-02-14T09:03:23;12.10;99.90
3053;DHT22;1536;51.098;6.414;2024-02-14T09:05:50;12.20;99.90
3053;DHT22;1536;51.098;6.414;2024-02-14T09:08:18;12.30;99.90
3053;DHT22;1536;51.098;6.414;2024-02-14T09:10:46;12.20;99.90
3053;DHT22;1536;51.098;6.414;2024-02-14T09:13:14;12.30;99.90
3053;DHT22;1536;51.098;6.414;2024-02-14T09:15:40;12.30;99.90
3053;DHT22;1536;51.098;6.414;2024-02-14T09:20:36;12.50;99.90
3053;DHT22;1536;51.098;6.414;2024-02-14T09:23:04;12.50;99.90
3053;DHT22;1536;51.098;6.414;2024-02-14T09:25:31;12.60;99.90
3053;DHT22;1536;51.098;6.414;2024-02-14T09:27:58;12.50;99.90
3053;DHT22;1536;51.098;6.414;2024-02-14T09:30:25;12.60;99.90
3053;DHT22;1536;51.098;6.414;2024-02-14T09:32:52;12.70;99.90
3053;DHT22;1536;51.098;6.414;2024-02-14T09:35:19;12.80;99.90
3053;DHT22;1536;51.098;6.414;2024-02-14T09:37:47;12.80;99.90
3053;DHT22;1536;51.098;6.414;2024-02-14T09:40:15;12.80;99.90
3053;DHT22;1536;51.098;6.414;2024-02-14T09:42:44;12.90;99.90
3053;DHT22;1536;51.098;6.414;2024-02-14T09:45:16;12.90;99.90
3053;DHT22;1536;51.098;6.414;2024-02-14T09:47:45;12.90;99.90
3053;DHT22;1536;51.098;6.414;2024-02-14T09:50:13;12.90;99.90
3053;DHT22;1536;51.098;6.414;2024-02-14T09:52:41;12.90;99.90
3053;DHT22;1536;51.098;6.414;2024-02-14T09:55:11;12.90;99.90
3053;DHT22;1536;51.098;6.414;2024-02-14T09:57:41;12.90;99.90
3053;DHT22;1536;51.098;6.414;2024-02-14T10:00:09;12.90;99.90
3053;DHT22;1536;51.098;6.414;2024-02-14T10:02:36;12.90;99.90
3053;DHT22;1536;51.098;6.414;2024-02-14T10:05:04;12.90;99.90
3053;DHT22;1536;51.098;6.414;2024-02-14T10:07:40;12.90;99.90
3053;DHT22;1536;51.098;6.414;2024-02-14T10:10:07;12.90;99.90
3053;DHT22;1536;51.098;6.414;2024-02-14T10:12:35;13.00;99.90
3053;DHT22;1536;51.098;6.414;2024-02-14T10:15:03;13.00;99.90
3053;DHT22;1536;51.098;6.414;2024-02-14T10:17:32;13.00;99.90
3053;DHT22;1536;51.098;6.414;2024-02-14T10:20:00;13.10;99.90
3053;DHT22;1536;51.098;6.414;2024-02-14T10:22:33;13.10;99.90
3053;DHT22;1536;51.098;6.414;2024-02-14T10:25:01;13.10;99.90
3053;DHT22;1536;51.098;6.414;2024-02-14T10:27:30;13.10;99.90
3053;DHT22;1536;51.098;6.414;2024-02-14T10:29:59;13.10;99.90
3053;DHT22;1536;51.098;6.414;2024-02-14T10:32:26;13.10;99.90
3053;DHT22;1536;51.098;6.414;2024-02-14T10:34:53;13.10;99.90
3053;DHT22;1536;51.098;6.414;2024-02-14T10:37:21;13.20;99.90
3053;DHT22;1536;51.098;6.414;2024-02-14T10:39:49;13.20;99.90
3053;DHT22;1536;51.098;6.414;2024-02-14T10:42:18;13.20;99.90
3053;DHT22;1536;51.098;6.414;2024-02-14T10:44:45;13.20;99.90
3053;DHT22;1536;51.098;6.414;2024-02-14T10:47:19;13.20;99.90
3053;DHT22;1536;51.098;6.414;2024-02-14T10:49:48;13.20;99.90
3053;DHT22;1536;51.098;6.414;2024-02-14T10:52:18;13.30;99.90
3053;DHT22;1536;51.098;6.414;2024-02-14T10:54:52;13.40;99.90
3053;DHT22;1536;51.098;6.414;2024-02-14T10:57:19;13.40;99.90
3053;DHT22;1536;51.098;6.414;2024-02-14T10:59:48;13.40;99.90
3053;DHT22;1536;51.098;6.414;2024-02-14T11:02:17;13.50;99.90
3053;DHT22;1536;51.098;6.414;2024-02-14T11:04:45;13.60;99.90
3053;DHT22;1536;51.098;6.414;2024-02-14T11:07:12;13.60;99.90
3053;DHT22;1536;51.098;6.414;2024-02-14T11:09:42;13.60;99.90
3053;DHT22;1536;51.098;6.414;2024-02-14T11:12:10;13.70;99.90
3053;DHT22;1536;51.098;6.414;2024-02-14T11:14:42;13.80;99.90
3053;DHT22;1536;51.098;6.414;2024-02-14T11:17:12;13.80;99.90
3053;DHT22;1536;51.098;6.414;2024-02-14T11:19:40;13.80;99.90
3053;DHT22;1536;51.098;6.414;2024-02-14T11:22:12;13.80;99.90
3053;DHT22;1536;51.098;6.414;2024-02-14T11:24:39;13.90;99.90
3053;DHT22;1536;51.098;6.414;2024-02-14T11:27:10;13.90;99.90
3053;DHT22;1536;51.098;6.414;2024-02-14T11:29:38;13.80;99.90
3053;DHT22;1536;51.098;6.414;2024-02-14T11:32:06;13.80;99.90
3053;DHT22;1536;51.098;6.414;2024-02-14T11:34:35;13.80;99.90
3053;DHT22;1536;51.098;6.414;2024-02-14T11:37:03;13.80;99.90
3053;DHT22;1536;51.098;6.414;2024-02-14T11:39:33;13.70;99.90
3053;DHT22;1536;51.098;6.414;2024-02-14T11:42:00;13.70;99.90
3053;DHT22;1536;51.098;6.414;2024-02-14T11:44:28;13.70;99.90
3053;DHT22;1536;51.098;6.414;2024-02-14T11:46:58;13.70;99.90
3053;DHT22;1536;51.098;6.414;2024-02-14T11:49:26;13.70;99.90
3053;DHT22;1536;51.098;6.414;2024-02-14T11:51:53;13.60;99.90
3053;DHT22;1536;51.098;6.414;2024-02-14T11:54:22;13.60;99.90
3053;DHT22;1536;51.098;6.414;2024-02-14T11:56:49;13.60;99.90
3053;DHT22;1536;51.098;6.414;2024-02-14T11:59:16;13.60;99.90
3053;DHT22;1536;51.098;6.414;2024-02-14T12:04:48;13.50;99.90
3053;DHT22;1536;51.098;6.414;2024-02-14T12:07:16;13.50;99.90
3053;DHT22;1536;51.098;6.414;2024-02-14T12:09:45;13.40;99.90
3053;DHT22;1536;51.098;6.414;2024-02-14T12:12:13;13.40;99.90
3053;DHT22;1536;51.098;6.414;2024-02-14T12:14:42;13.40;99.90
3053;DHT22;1536;51.098;6.414;2024-02-14T12:17:10;13.40;99.90
3053;DHT22;1536;51.098;6.414;2024-02-14T12:19:37;13.40;99.90
3053;DHT22;1536;51.098;6.414;2024-02-14T12:22:09;13.40;99.90
3053;DHT22;1536;51.098;6.414;2024-02-14T12:24:37;13.40;99.90
3053;DHT22;1536;51.098;6.414;2024-02-14T12:27:05;13.40;99.90
3053;DHT22;1536;51.098;6.414;2024-02-14T12:29:35;13.40;99.90
3053;DHT22;1536;51.098;6.414;2024-02-14T12:32:06;13.40;99.90
3053;DHT22;1536;51.098;6.414;2024-02-14T12:34:33;13.40;99.90
3053;DHT22;1536;51.098;6.414;2024-02-14T12:36:59;13.50;99.90
3053;DHT22;1536;51.098;6.414;2024-02-14T12:39:26;13.50;99.90
3053;DHT22;1536;51.098;6.414;2024-02-14T12:41:54;13.60;99.90
3053;DHT22;1536;51.098;6.414;2024-02-14T12:44:23;13.60;99.90
3053;DHT22;1536;51.098;6.414;2024-02-14T12:46:49;13.60;99.90
3053;DHT22;1536;51.098;6.414;2024-02-14T12:49:16;13.60;99.90
3053;DHT22;1536;51.098;6.414;2024-02-14T12:51:44;13.60;99.90
3053;DHT22;1536;51.098;6.414;2024-02-14T12:54:11;13.60;99.90
3053;DHT22;1536;51.098;6.414;2024-02-14T12:56:40;13.60;99.90
3053;DHT22;1536;51.098;6.414;2024-02-14T12:59:07;13.60;99.90
3053;DHT22;1536;51.098;6.414;2024-02-14T13:01:37;13.60;99.90
3053;DHT22;1536;51.098;6.414;2024-02-14T13:04:05;13.60;99.90
3053;DHT22;1536;51.098;6.414;2024-02-14T13:06:35;13.60;99.90
3053;DHT22;1536;51.098;6.414;2024-02-14T13:09:03;13.60;99.90
3053;DHT22;1536;51.098;6.414;2024-02-14T13:11:31;13.60;99.90
3053;DHT22;1536;51.098;6.414;2024-02-14T13:13:58;13.60;99.90
3053;DHT22;1536;51.098;6.414;2024-02-14T13:16:25;13.60;99.90
3053;DHT22;1536;51.098;6.414;2024-02-14T13:18:53;13.60;99.90
3053;DHT22;1536;51.098;6.414;2024-02-14T13:21:21;13.60;99.90
3053;DHT22;1536;51.098;6.414;2024-02-14T13:23:48;13.60;99.90
3053;DHT22;1536;51.098;6.414;2024-02-14T13:26:15;13.60;99.90
3053;DHT22;1536;51.098;6.414;2024-02-14T13:28:42;13.60;99.90
3053;DHT22;1536;51.098;6.414;2024-02-14T13:31:09;13.60;99.90
3053;DHT22;1536;51.098;6.414;2024-02-14T13:33:36;13.60;99.90
3053;DHT22;1536;51.098;6.414;2024-02-14T13:36:05;13.50;99.90
3053;DHT22;1536;51.098;6.414;2024-02-14T13:38:32;13.50;99.90
3053;DHT22;1536;51.098;6.414;2024-02-14T13:40:59;13.50;99.90
3053;DHT22;1536;51.098;6.414;2024-02-14T13:43:26;13.50;99.90
3053;DHT22;1536;51.098;6.414;2024-02-14T13:45:53;13.50;99.90
3053;DHT22;1536;51.098;6.414;2024-02-14T13:48:20;13.50;99.90
3053;DHT22;1536;51.098;6.414;2024-02-14T13:50:47;13.40;99.90
3053;DHT22;1536;51.098;6.414;2024-02-14T13:53:16;13.40;99.90
3053;DHT22;1536;51.098;6.414;2024-02-14T13:55:43;13.30;99.90
3053;DHT22;1536;51.098;6.414;2024-02-14T13:58:10;13.30;99.90
3053;DHT22;1536;51.098;6.414;2024-02-14T14:00:42;13.30;99.90
3053;DHT22;1536;51.098;6.414;2024-02-14T14:03:09;13.30;99.90
3053;DHT22;1536;51.098;6.414;2024-02-14T14:05:37;13.30;99.90
3053;DHT22;1536;51.098;6.414;2024-02-14T14:08:04;13.20;99.90
3053;DHT22;1536;51.098;6.414;2024-02-14T14:10:32;13.20;99.90
3053;DHT22;1536;51.098;6.414;2024-02-14T14:12:59;13.20;99.90
3053;DHT22;1536;51.098;6.414;2024-02-14T14:15:26;13.10;99.90
3053;DHT22;1536;51.098;6.414;2024-02-14T14:17:54;13.10;99.90
3053;DHT22;1536;51.098;6.414;2024-02-14T14:20:23;13.00;99.90
3053;DHT22;1536;51.098;6.414;2024-02-14T14:22:49;13.00;99.90
3053;DHT22;1536;51.098;6.414;2024-02-14T14:25:17;13.00;99.90
3053;DHT22;1536;51.098;6.414;2024-02-14T14:27:45;13.00;99.90
3053;DHT22;1536;51.098;6.414;2024-02-14T14:30:12;13.00;99.90
3053;DHT22;1536;51.098;6.414;2024-02-14T14:32:39;12.90;99.90
3053;DHT22;1536;51.098;6.414;2024-02-14T14:35:06;12.90;99.90
3053;DHT22;1536;51.098;6.414;2024-02-14T14:37:35;13.00;99.90
3053;DHT22;1536;51.098;6.414;2024-02-14T14:40:03;12.90;99.90
3053;DHT22;1536;51.098;6.414;2024-02-14T14:42:31;12.90;99.90
3053;DHT22;1536;51.098;6.414;2024-02-14T14:44:59;12.90;99.90
3053;DHT22;1536;51.098;6.414;2024-02-14T14:47:26;12.90;99.90
3053;DHT22;1536;51.098;6.414;2024-02-14T14:49:52;12.90;99.90
3053;DHT22;1536;51.098;6.414;2024-02-14T14:52:19;12.90;99.90
3053;DHT22;1536;51.098;6.414;2024-02-14T14:54:46;12.90;99.90
3053;DHT22;1536;51.098;6.414;2024-02-14T14:57:13;12.90;99.90
3053;DHT22;1536;51.098;6.414;2024-02-14T14:59:40;13.00;99.90
3053;DHT22;1536;51.098;6.414;2024-02-14T15:02:10;12.90;99.90
3053;DHT22;1536;51.098;6.414;2024-02-14T15:04:36;12.90;99.90
3053;DHT22;1536;51.098;6.414;2024-02-14T15:07:05;12.90;99.90
3053;DHT22;1536;51.098;6.414;2024-02-14T15:09:32;12.90;99.90
3053;DHT22;1536;51.098;6.414;2024-02-14T15:11:59;12.90;99.90
3053;DHT22;1536;51.098;6.414;2024-02-14T15:14:26;12.90;99.90
3053;DHT22;1536;51.098;6.414;2024-02-14T15:16:53;12.90;99.90
3053;DHT22;1536;51.098;6.414;2024-02-14T15:19:21;12.90;99.90
3053;DHT22;1536;51.098;6.414;2024-02-14T15:21:49;12.90;99.90
3053;DHT22;1536;51.098;6.414;2024-02-14T15:24:16;12.90;99.90
3053;DHT22;1536;51.098;6.414;2024-02-14T15:26:43;12.90;99.90
3053;DHT22;1536;51.098;6.414;2024-02-14T15:29:16;12.90;99.90
3053;DHT22;1536;51.098;6.414;2024-02-14T15:32:00;12.90;99.90
3053;DHT22;1536;51.098;6.414;2024-02-14T15:34:46;12.90;99.90
3053;DHT22;1536;51.098;6.414;2024-02-14T15:37:14;12.90;99.90
3053;DHT22;1536;51.098;6.414;2024-02-14T15:39:43;12.90;99.90
3053;DHT22;1536;51.098;6.414;2024-02-14T15:42:10;12.90;99.90
3053;DHT22;1536;51.098;6.414;2024-02-14T15:44:37;12.90;99.90
3053;DHT22;1536;51.098;6.414;2024-02-14T15:47:04;12.90;99.90
3053;DHT22;1536;51.098;6.414;2024-02-14T15:49:31;12.90;99.90
3053;DHT22;1536;51.098;6.414;2024-02-14T15:52:02;12.90;99.90
3053;DHT22;1536;51.098;6.414;2024-02-14T15:54:30;12.90;99.90
3053;DHT22;1536;51.098;6.414;2024-02-14T15:56:57;12.90;99.90
3053;DHT22;1536;51.098;6.414;2024-02-14T15:59:24;12.90;99.90
3053;DHT22;1536;51.098;6.414;2024-02-14T16:01:52;12.90;99.90
3053;DHT22;1536;51.098;6.414;2024-02-14T16:04:19;12.90;99.90
3053;DHT22;1536;51.098;6.414;2024-02-14T16:06:46;12.90;99.90
3053;DHT22;1536;51.098;6.414;2024-02-14T16:09:14;12.80;99.90
3053;DHT22;1536;51.098;6.414;2024-02-14T16:11:41;12.90;99.90
3053;DHT22;1536;51.098;6.414;2024-02-14T16:14:08;12.90;99.90
3053;DHT22;1536;51.098;6.414;2024-02-14T16:16:35;12.90;99.90
3053;DHT22;1536;51.098;6.414;2024-02-14T16:19:02;12.90;99.90
3053;DHT22;1536;51.098;6.414;2024-02-14T16:21:29;12.90;99.90
3053;DHT22;1536;51.098;6.414;2024-02-14T16:23:56;12.90;99.90
3053;DHT22;1536;51.098;6.414;2024-02-14T16:26:24;12.90;99.90
3053;DHT22;1536;51.098;6.414;2024-02-14T16:28:54;12.90;99.90
3053;DHT22;1536;51.098;6.414;2024-02-14T16:31:21;12.90;99.90
3053;DHT22;1536;51.098;6.414;2024-02-14T16:33:48;12.90;99.90